sensor_id;sensor_type;location;lat;lon;timestamp;P1;durP1;ratioP1;P2;durP2;ratioP2
57155;SDS011;73771;59.928;10.682;2023-12-04T03:32:12;1.30;;;1.20;;
57155;SDS011;73771;59.928;10.682;2023-12-04T03:34:38;1.15;;;0.98;;
57155;SDS011;73771;59.928;10.682;2023-12-04T03:37:04;1.30;;;1.10;;
57155;SDS011;73771;59.928;10.682;2023-12-04T03:39:30;1.40;;;1.13;;
57155;SDS011;73771;59.928;10.682;2023-12-04T03:41:56;1.67;;;1.08;;
57155;SDS011;73771;59.928;10.682;2023-12-04T03:44:23;1.27;;;0.95;;
57155;SDS011;73771;59.928;10.682;2023-12-04T03:46:49;1.23;;;1.13;;
57155;SDS011;73771;59.928;10.682;2023-12-04T03:49:15;0.77;;;0.77;;
57155;SDS011;73771;59.928;10.682;2023-12-04T03:51:41;0.80;;;0.80;;
57155;SDS011;73771;59.928;10.682;2023-12-04T03:54:07;0.57;;;0.57;;
57155;SDS011;73771;59.928;10.682;2023-12-04T03:56:33;1.17;;;0.98;;
57155;SDS011;73771;59.928;10.682;2023-12-04T03:59:00;0.70;;;0.70;;
57155;SDS011;73771;59.928;10.682;2023-12-04T04:06:57;1.38;;;0.88;;
57155;SDS011;73771;59.928;10.682;2023-12-04T04:09:23;0.60;;;0.52;;
57155;SDS011;73771;59.928;10.682;2023-12-04T04:11:49;0.75;;;0.75;;
57155;SDS011;73771;59.928;10.682;2023-12-04T04:14:15;0.60;;;0.60;;
57155;SDS011;73771;59.928;10.682;2023-12-04T04:16:41;1.05;;;0.80;;
57155;SDS011;73771;59.928;10.682;2023-12-04T04:19:07;0.65;;;0.65;;
57155;SDS011;73771;59.928;10.682;2023-12-04T04:21:33;1.08;;;0.85;;
57155;SDS011;73771;59.928;10.682;2023-12-04T04:24:00;0.52;;;0.52;;
57155;SDS011;73771;59.928;10.682;2023-12-04T04:26:26;0.80;;;0.68;;
57155;SDS011;73771;59.928;10.682;2023-12-04T04:28:52;0.65;;;0.65;;
57155;SDS011;73771;59.928;10.682;2023-12-04T04:31:18;1.75;;;0.77;;
57155;SDS011;73771;59.928;10.682;2023-12-04T04:33:44;0.68;;;0.68;;
57155;SDS011;73771;59.928;10.682;2023-12-04T04:36:10;0.90;;;0.90;;
57155;SDS011;73771;59.928;10.682;2023-12-04T04:38:36;0.77;;;0.60;;
57155;SDS011;73771;59.928;10.682;2023-12-04T04:41:05;0.90;;;0.60;;
57155;SDS011;73771;59.928;10.682;2023-12-04T04:43:31;0.68;;;0.55;;
57155;SDS011;73771;59.928;10.682;2023-12-04T04:45:57;0.80;;;0.50;;
57155;SDS011;73771;59.928;10.682;2023-12-04T04:48:23;1.08;;;0.55;;
57155;SDS011;73771;59.928;10.682;2023-12-04T04:50:49;0.50;;;0.50;;
57155;SDS011;73771;59.928;10.682;2023-12-04T04:53:15;0.60;;;0.60;;
57155;SDS011;73771;59.928;10.682;2023-12-04T04:55:41;0.38;;;0.38;;
57155;SDS011;73771;59.928;10.682;2023-12-04T04:58:08;0.80;;;0.60;;
57155;SDS011;73771;59.928;10.682;2023-12-04T05:00:34;0.85;;;0.60;;
57155;SDS011;73771;59.928;10.682;2023-12-04T05:03:00;0.82;;;0.60;;
57155;SDS011;73771;59.928;10.682;2023-12-04T05:05:26;0.63;;;0.63;;
57155;SDS011;73771;59.928;10.682;2023-12-04T05:07:52;0.55;;;0.55;;
57155;SDS011;73771;59.928;10.682;2023-12-04T05:10:18;0.57;;;0.57;;
57155;SDS011;73771;59.928;10.682;2023-12-04T05:12:44;0.63;;;0.63;;
57155;SDS011;73771;59.928;10.682;2023-12-04T05:15:10;0.57;;;0.57;;
57155;SDS011;73771;59.928;10.682;2023-12-04T05:17:37;0.82;;;0.52;;
57155;SDS011;73771;59.928;10.682;2023-12-04T05:20:03;0.63;;;0.60;;
57155;SDS011;73771;59.928;10.682;2023-12-04T05:22:29;0.60;;;0.60;;
57155;SDS011;73771;59.928;10.682;2023-12-04T05:24:55;0.70;;;0.70;;
57155;SDS011;73771;59.928;10.682;2023-12-04T05:27:22;0.85;;;0.80;;
57155;SDS011;73771;59.928;10.682;2023-12-04T05:29:48;0.95;;;0.52;;
57155;SDS011;73771;59.928;10.682;2023-12-04T05:32:14;0.40;;;0.40;;
57155;SDS011;73771;59.928;10.682;2023-12-04T05:34:40;0.38;;;0.38;;
57155;SDS011;73771;59.928;10.682;2023-12-04T05:37:06;0.43;;;0.38;;
57155;SDS011;73771;59.928;10.682;2023-12-04T05:39:32;0.47;;;0.47;;
57155;SDS011;73771;59.928;10.682;2023-12-04T05:41:58;0.32;;;0.32;;
57155;SDS011;73771;59.928;10.682;2023-12-04T05:44:24;2.15;;;0.70;;
57155;SDS011;73771;59.928;10.682;2023-12-04T05:46:50;1.52;;;0.70;;
57155;SDS011;73771;59.928;10.682;2023-12-04T05:49:17;0.88;;;0.80;;
57155;SDS011;73771;59.928;10.682;2023-12-04T05:51:43;0.95;;;0.70;;
57155;SDS011;73771;59.928;10.682;2023-12-04T05:54:09;0.90;;;0.77;;
57155;SDS011;73771;59.928;10.682;2023-12-04T05:56:35;0.82;;;0.65;;
57155;SDS011;73771;59.928;10.682;2023-12-04T05:59:01;0.68;;;0.68;;
57155;SDS011;73771;59.928;10.682;2023-12-04T06:01:28;1.10;;;0.75;;
57155;SDS011;73771;59.928;10.682;2023-12-04T06:03:54;2.78;;;0.82;;
57155;SDS011;73771;59.928;10.682;2023-12-04T06:06:20;2.28;;;1.00;;
57155;SDS011;73771;59.928;10.682;2023-12-04T06:08:46;2.10;;;1.17;;
57155;SDS011;73771;59.928;10.682;2023-12-04T06:11:12;3.17;;;1.00;;
57155;SDS011;73771;59.928;10.682;2023-12-04T06:13:39;3.22;;;1.20;;
57155;SDS011;73771;59.928;10.682;2023-12-04T06:16:05;2.35;;;0.95;;
57155;SDS011;73771;59.928;10.682;2023-12-04T06:18:31;1.42;;;0.93;;
57155;SDS011;73771;59.928;10.682;2023-12-04T06:20:57;4.65;;;1.48;;
57155;SDS011;73771;59.928;10.682;2023-12-04T06:23:23;1.70;;;1.08;;
57155;SDS011;73771;59.928;10.682;2023-12-04T06:25:50;4.28;;;1.20;;
57155;SDS011;73771;59.928;10.682;2023-12-04T06:28:16;1.20;;;0.93;;
57155;SDS011;73771;59.928;10.682;2023-12-04T06:30:42;5.43;;;1.27;;
57155;SDS011;73771;59.928;10.682;2023-12-04T06:33:09;2.45;;;1.30;;
57155;SDS011;73771;59.928;10.682;2023-12-04T06:35:35;5.13;;;1.50;;
57155;SDS011;73771;59.928;10.682;2023-12-04T06:38:04;2.08;;;1.50;;
57155;SDS011;73771;59.928;10.682;2023-12-04T06:40:31;4.47;;;1.65;;
57155;SDS011;73771;59.928;10.682;2023-12-04T06:42:58;3.03;;;1.20;;
57155;SDS011;73771;59.928;10.682;2023-12-04T06:45:24;1.67;;;1.30;;
57155;SDS011;73771;59.928;10.682;2023-12-04T06:47:51;2.55;;;1.20;;
57155;SDS011;73771;59.928;10.682;2023-12-04T06:50:18;1.98;;;1.42;;
57155;SDS011;73771;59.928;10.682;2023-12-04T06:52:44;3.58;;;1.60;;
57155;SDS011;73771;59.928;10.682;2023-12-04T06:55:10;2.72;;;1.33;;
57155;SDS011;73771;59.928;10.682;2023-12-04T06:57:37;2.30;;;1.45;;
57155;SDS011;73771;59.928;10.682;2023-12-04T07:00:03;2.03;;;1.50;;
57155;SDS011;73771;59.928;10.682;2023-12-04T07:02:31;3.45;;;1.73;;
57155;SDS011;73771;59.928;10.682;2023-12-04T07:04:57;8.30;;;1.70;;
57155;SDS011;73771;59.928;10.682;2023-12-04T07:07:23;2.47;;;1.50;;
57155;SDS011;73771;59.928;10.682;2023-12-04T07:09:50;3.17;;;1.35;;
57155;SDS011;73771;59.928;10.682;2023-12-04T07:12:16;4.35;;;1.60;;
57155;SDS011;73771;59.928;10.682;2023-12-04T07:14:42;2.15;;;1.73;;
57155;SDS011;73771;59.928;10.682;2023-12-04T07:17:09;2.20;;;1.50;;
57155;SDS011;73771;59.928;10.682;2023-12-04T07:19:36;2.42;;;1.30;;
57155;SDS011;73771;59.928;10.682;2023-12-04T07:22:03;3.05;;;1.23;;
57155;SDS011;73771;59.928;10.682;2023-12-04T07:24:29;3.40;;;1.38;;
57155;SDS011;73771;59.928;10.682;2023-12-04T07:26:55;1.52;;;1.35;;
57155;SDS011;73771;59.928;10.682;2023-12-04T07:29:21;1.88;;;1.40;;
57155;SDS011;73771;59.928;10.682;2023-12-04T07:31:47;1.75;;;1.35;;
57155;SDS011;73771;59.928;10.682;2023-12-04T07:34:13;1.92;;;1.50;;
57155;SDS011;73771;59.928;10.682;2023-12-04T07:36:39;1.50;;;1.40;;
57155;SDS011;73771;59.928;10.682;2023-12-04T07:39:05;2.35;;;1.77;;
57155;SDS011;73771;59.928;10.682;2023-12-04T07:41:32;2.13;;;1.50;;
57155;SDS011;73771;59.928;10.682;2023-12-04T07:43:58;2.67;;;1.30;;
57155;SDS011;73771;59.928;10.682;2023-12-04T07:46:24;1.73;;;1.50;;
57155;SDS011;73771;59.928;10.682;2023-12-04T07:48:50;1.35;;;1.23;;
57155;SDS011;73771;59.928;10.682;2023-12-04T07:51:17;1.50;;;1.40;;
57155;SDS011;73771;59.928;10.682;2023-12-04T07:53:43;1.60;;;1.33;;
57155;SDS011;73771;59.928;10.682;2023-12-04T07:56:11;2.72;;;1.23;;
57155;SDS011;73771;59.928;10.682;2023-12-04T07:58:37;3.72;;;1.67;;
57155;SDS011;73771;59.928;10.682;2023-12-04T08:01:03;1.55;;;1.08;;
57155;SDS011;73771;59.928;10.682;2023-12-04T08:03:31;1.42;;;1.33;;
57155;SDS011;73771;59.928;10.682;2023-12-04T08:05:57;2.10;;;1.67;;
57155;SDS011;73771;59.928;10.682;2023-12-04T08:08:23;2.88;;;1.40;;
57155;SDS011;73771;59.928;10.682;2023-12-04T08:10:50;1.30;;;1.20;;
57155;SDS011;73771;59.928;10.682;2023-12-04T08:13:16;2.63;;;1.38;;
57155;SDS011;73771;59.928;10.682;2023-12-04T08:15:42;2.10;;;1.67;;
57155;SDS011;73771;59.928;10.682;2023-12-04T08:18:09;1.35;;;1.25;;
57155;SDS011;73771;59.928;10.682;2023-12-04T08:20:35;1.70;;;1.60;;
57155;SDS011;73771;59.928;10.682;2023-12-04T08:23:01;2.13;;;1.92;;
57155;SDS011;73771;59.928;10.682;2023-12-04T08:25:28;1.73;;;1.63;;
57155;SDS011;73771;59.928;10.682;2023-12-04T08:27:55;2.67;;;1.75;;
57155;SDS011;73771;59.928;10.682;2023-12-04T08:30:21;2.60;;;1.80;;
57155;SDS011;73771;59.928;10.682;2023-12-04T08:32:47;2.00;;;1.80;;
57155;SDS011;73771;59.928;10.682;2023-12-04T08:35:13;2.22;;;1.58;;
57155;SDS011;73771;59.928;10.682;2023-12-04T08:37:39;1.98;;;1.42;;
57155;SDS011;73771;59.928;10.682;2023-12-04T08:40:06;1.50;;;1.40;;
57155;SDS011;73771;59.928;10.682;2023-12-04T08:42:33;1.90;;;1.75;;
57155;SDS011;73771;59.928;10.682;2023-12-04T08:44:59;2.45;;;2.20;;
57155;SDS011;73771;59.928;10.682;2023-12-04T08:47:25;3.22;;;2.08;;
57155;SDS011;73771;59.928;10.682;2023-12-04T08:49:51;2.70;;;2.05;;
57155;SDS011;73771;59.928;10.682;2023-12-04T08:52:17;2.03;;;1.58;;
57155;SDS011;73771;59.928;10.682;2023-12-04T08:54:44;2.78;;;2.08;;
57155;SDS011;73771;59.928;10.682;2023-12-04T08:57:10;3.03;;;2.15;;
57155;SDS011;73771;59.928;10.682;2023-12-04T08:59:36;3.28;;;2.22;;
57155;SDS011;73771;59.928;10.682;2023-12-04T09:02:02;1.98;;;1.80;;
57155;SDS011;73771;59.928;10.682;2023-12-04T09:04:29;2.42;;;2.22;;
57155;SDS011;73771;59.928;10.682;2023-12-04T09:06:56;3.38;;;2.42;;
57155;SDS011;73771;59.928;10.682;2023-12-04T09:09:22;2.80;;;2.03;;
57155;SDS011;73771;59.928;10.682;2023-12-04T09:11:49;2.63;;;2.08;;
57155;SDS011;73771;59.928;10.682;2023-12-04T09:14:15;2.85;;;2.22;;
57155;SDS011;73771;59.928;10.682;2023-12-04T09:16:41;4.00;;;2.20;;
57155;SDS011;73771;59.928;10.682;2023-12-04T09:19:08;3.00;;;2.03;;
57155;SDS011;73771;59.928;10.682;2023-12-04T09:21:34;4.80;;;2.13;;
57155;SDS011;73771;59.928;10.682;2023-12-04T09:24:00;2.80;;;2.40;;
57155;SDS011;73771;59.928;10.682;2023-12-04T09:26:27;2.58;;;2.38;;
57155;SDS011;73771;59.928;10.682;2023-12-04T09:28:53;2.67;;;1.95;;
57155;SDS011;73771;59.928;10.682;2023-12-04T09:31:19;2.63;;;2.42;;
57155;SDS011;73771;59.928;10.682;2023-12-04T09:33:45;2.60;;;2.13;;
57155;SDS011;73771;59.928;10.682;2023-12-04T09:36:14;5.15;;;2.92;;
57155;SDS011;73771;59.928;10.682;2023-12-04T09:38:40;9.00;;;3.17;;
57155;SDS011;73771;59.928;10.682;2023-12-04T09:41:07;5.05;;;2.72;;
57155;SDS011;73771;59.928;10.682;2023-12-04T09:43:34;5.00;;;2.60;;
57155;SDS011;73771;59.928;10.682;2023-12-04T09:46:01;4.80;;;2.60;;
57155;SDS011;73771;59.928;10.682;2023-12-04T09:48:27;3.67;;;2.88;;
57155;SDS011;73771;59.928;10.682;2023-12-04T09:50:55;4.03;;;2.63;;
57155;SDS011;73771;59.928;10.682;2023-12-04T09:53:22;6.05;;;3.10;;
57155;SDS011;73771;59.928;10.682;2023-12-04T09:55:48;5.82;;;3.17;;
57155;SDS011;73771;59.928;10.682;2023-12-04T09:58:15;5.75;;;3.38;;
57155;SDS011;73771;59.928;10.682;2023-12-04T10:00:42;5.32;;;2.92;;
57155;SDS011;73771;59.928;10.682;2023-12-04T10:03:08;3.42;;;2.92;;
57155;SDS011;73771;59.928;10.682;2023-12-04T10:05:34;4.53;;;2.90;;
57155;SDS011;73771;59.928;10.682;2023-12-04T10:08:00;6.65;;;3.60;;
57155;SDS011;73771;59.928;10.682;2023-12-04T10:10:26;4.47;;;2.90;;
57155;SDS011;73771;59.928;10.682;2023-12-04T10:12:53;3.42;;;2.75;;
57155;SDS011;73771;59.928;10.682;2023-12-04T10:15:20;4.45;;;2.95;;
57155;SDS011;73771;59.928;10.682;2023-12-04T10:17:46;3.50;;;2.88;;
57155;SDS011;73771;59.928;10.682;2023-12-04T10:20:15;4.03;;;2.97;;
57155;SDS011;73771;59.928;10.682;2023-12-04T10:22:59;5.05;;;2.90;;
57155;SDS011;73771;59.928;10.682;2023-12-04T10:25:27;4.40;;;3.17;;
57155;SDS011;73771;59.928;10.682;2023-12-04T10:27:54;5.75;;;2.75;;
57155;SDS011;73771;59.928;10.682;2023-12-04T10:30:25;4.70;;;2.55;;
57155;SDS011;73771;59.928;10.682;2023-12-04T10:32:55;5.40;;;2.90;;
57155;SDS011;73771;59.928;10.682;2023-12-04T10:35:21;4.70;;;3.03;;
57155;SDS011;73771;59.928;10.682;2023-12-04T10:37:48;3.85;;;2.75;;
57155;SDS011;73771;59.928;10.682;2023-12-04T10:40:22;5.55;;;3.00;;
57155;SDS011;73771;59.928;10.682;2023-12-04T10:42:48;5.68;;;2.90;;
57155;SDS011;73771;59.928;10.682;2023-12-04T10:45:14;4.03;;;2.55;;
57155;SDS011;73771;59.928;10.682;2023-12-04T10:47:40;3.85;;;2.72;;
57155;SDS011;73771;59.928;10.682;2023-12-04T10:50:06;4.03;;;2.85;;
57155;SDS011;73771;59.928;10.682;2023-12-04T10:52:33;3.30;;;3.00;;
57155;SDS011;73771;59.928;10.682;2023-12-04T10:54:59;3.45;;;2.80;;
57155;SDS011;73771;59.928;10.682;2023-12-04T10:57:27;2.30;;;2.10;;
57155;SDS011;73771;59.928;10.682;2023-12-04T10:59:57;3.55;;;2.60;;
57155;SDS011;73771;59.928;10.682;2023-12-04T11:02:25;4.80;;;2.95;;
57155;SDS011;73771;59.928;10.682;2023-12-04T11:04:53;3.55;;;2.65;;
57155;SDS011;73771;59.928;10.682;2023-12-04T11:07:20;4.70;;;3.25;;
57155;SDS011;73771;59.928;10.682;2023-12-04T11:09:49;4.07;;;2.92;;
57155;SDS011;73771;59.928;10.682;2023-12-04T11:12:17;5.18;;;2.92;;
57155;SDS011;73771;59.928;10.682;2023-12-04T11:14:46;3.55;;;2.92;;
57155;SDS011;73771;59.928;10.682;2023-12-04T11:17:15;3.58;;;2.75;;
57155;SDS011;73771;59.928;10.682;2023-12-04T11:22:17;3.25;;;2.50;;
57155;SDS011;73771;59.928;10.682;2023-12-04T11:24:46;4.95;;;2.80;;
57155;SDS011;73771;59.928;10.682;2023-12-04T11:27:14;4.22;;;2.67;;
57155;SDS011;73771;59.928;10.682;2023-12-04T11:29:40;4.30;;;2.95;;
57155;SDS011;73771;59.928;10.682;2023-12-04T11:32:07;3.38;;;2.70;;
57155;SDS011;73771;59.928;10.682;2023-12-04T11:34:35;3.72;;;2.78;;
57155;SDS011;73771;59.928;10.682;2023-12-04T11:37:01;5.25;;;2.88;;
57155;SDS011;73771;59.928;10.682;2023-12-04T11:39:27;3.42;;;2.10;;
57155;SDS011;73771;59.928;10.682;2023-12-04T11:41:55;3.22;;;2.38;;
57155;SDS011;73771;59.928;10.682;2023-12-04T11:44:21;4.30;;;2.05;;
57155;SDS011;73771;59.928;10.682;2023-12-04T11:46:57;3.97;;;2.35;;
57155;SDS011;73771;59.928;10.682;2023-12-04T11:49:30;2.38;;;2.00;;
57155;SDS011;73771;59.928;10.682;2023-12-04T11:51:57;5.15;;;2.92;;
57155;SDS011;73771;59.928;10.682;2023-12-04T11:54:23;5.20;;;2.78;;
57155;SDS011;73771;59.928;10.682;2023-12-04T11:57:23;3.13;;;2.58;;
57155;SDS011;73771;59.928;10.682;2023-12-04T11:59:42;3.30;;;2.13;;
57155;SDS011;73771;59.928;10.682;2023-12-04T12:02:09;2.60;;;2.40;;
57155;SDS011;73771;59.928;10.682;2023-12-04T12:04:36;3.35;;;1.88;;
57155;SDS011;73771;59.928;10.682;2023-12-04T12:07:02;3.03;;;2.42;;
57155;SDS011;73771;59.928;10.682;2023-12-04T12:09:30;3.10;;;2.10;;
57155;SDS011;73771;59.928;10.682;2023-12-04T12:11:59;2.72;;;2.00;;
57155;SDS011;73771;59.928;10.682;2023-12-04T12:14:25;3.63;;;2.20;;
57155;SDS011;73771;59.928;10.682;2023-12-04T12:16:51;3.20;;;2.20;;
57155;SDS011;73771;59.928;10.682;2023-12-04T12:19:19;3.60;;;2.25;;
57155;SDS011;73771;59.928;10.682;2023-12-04T12:21:45;2.30;;;1.90;;
57155;SDS011;73771;59.928;10.682;2023-12-04T12:24:14;3.28;;;2.50;;
57155;SDS011;73771;59.928;10.682;2023-12-04T12:26:40;2.80;;;1.90;;
57155;SDS011;73771;59.928;10.682;2023-12-04T12:29:08;2.45;;;1.88;;
57155;SDS011;73771;59.928;10.682;2023-12-04T12:31:34;4.32;;;2.28;;
57155;SDS011;73771;59.928;10.682;2023-12-04T12:34:00;1.73;;;1.63;;
57155;SDS011;73771;59.928;10.682;2023-12-04T12:36:28;3.17;;;1.90;;
57155;SDS011;73771;59.928;10.682;2023-12-04T12:38:54;3.70;;;1.70;;
57155;SDS011;73771;59.928;10.682;2023-12-04T12:41:21;2.83;;;2.22;;
57155;SDS011;73771;59.928;10.682;2023-12-04T12:43:50;2.72;;;2.22;;
57155;SDS011;73771;59.928;10.682;2023-12-04T12:46:17;2.13;;;1.83;;
57155;SDS011;73771;59.928;10.682;2023-12-04T12:48:44;2.28;;;1.55;;
57155;SDS011;73771;59.928;10.682;2023-12-04T12:51:10;2.83;;;1.50;;
57155;SDS011;73771;59.928;10.682;2023-12-04T12:53:36;2.13;;;1.70;;
57155;SDS011;73771;59.928;10.682;2023-12-04T12:56:03;1.95;;;1.73;;
57155;SDS011;73771;59.928;10.682;2023-12-04T12:58:29;2.90;;;1.77;;
57155;SDS011;73771;59.928;10.682;2023-12-04T13:00:56;2.42;;;2.22;;
57155;SDS011;73771;59.928;10.682;2023-12-04T13:03:22;1.95;;;1.75;;
57155;SDS011;73771;59.928;10.682;2023-12-04T13:05:49;2.15;;;1.70;;
57155;SDS011;73771;59.928;10.682;2023-12-04T13:08:15;1.90;;;1.70;;
57155;SDS011;73771;59.928;10.682;2023-12-04T13:10:41;1.95;;;1.75;;
57155;SDS011;73771;59.928;10.682;2023-12-04T13:13:11;1.50;;;1.40;;
57155;SDS011;73771;59.928;10.682;2023-12-04T13:15:37;2.33;;;1.60;;
57155;SDS011;73771;59.928;10.682;2023-12-04T13:18:03;2.80;;;2.08;;
57155;SDS011;73771;59.928;10.682;2023-12-04T13:20:29;2.25;;;2.00;;
57155;SDS011;73771;59.928;10.682;2023-12-04T13:22:56;2.28;;;1.40;;
57155;SDS011;73771;59.928;10.682;2023-12-04T13:25:22;5.28;;;1.70;;
57155;SDS011;73771;59.928;10.682;2023-12-04T13:27:48;2.20;;;1.77;;
57155;SDS011;73771;59.928;10.682;2023-12-04T13:30:14;2.53;;;1.67;;
57155;SDS011;73771;59.928;10.682;2023-12-04T13:32:40;2.45;;;1.75;;
57155;SDS011;73771;59.928;10.682;2023-12-04T13:35:06;1.98;;;1.45;;
57155;SDS011;73771;59.928;10.682;2023-12-04T13:37:33;2.45;;;1.50;;
57155;SDS011;73771;59.928;10.682;2023-12-04T13:40:01;2.22;;;1.55;;
57155;SDS011;73771;59.928;10.682;2023-12-04T13:42:40;3.65;;;1.67;;
57155;SDS011;73771;59.928;10.682;2023-12-04T13:45:25;2.95;;;2.10;;
57155;SDS011;73771;59.928;10.682;2023-12-04T13:47:51;2.40;;;2.03;;
57155;SDS011;73771;59.928;10.682;2023-12-04T13:50:18;2.17;;;1.60;;
57155;SDS011;73771;59.928;10.682;2023-12-04T13:52:44;2.22;;;2.00;;
57155;SDS011;73771;59.928;10.682;2023-12-04T13:55:17;2.22;;;2.03;;
57155;SDS011;73771;59.928;10.682;2023-12-04T13:58:01;2.17;;;1.98;;
57155;SDS011;73771;59.928;10.682;2023-12-04T14:00:27;2.22;;;1.88;;
57155;SDS011;73771;59.928;10.682;2023-12-04T14:02:53;3.17;;;2.00;;
57155;SDS011;73771;59.928;10.682;2023-12-04T14:05:29;2.17;;;1.98;;
57155;SDS011;73771;59.928;10.682;2023-12-04T14:07:55;1.67;;;1.42;;
57155;SDS011;73771;59.928;10.682;2023-12-04T14:10:22;3.22;;;1.92;;
57155;SDS011;73771;59.928;10.682;2023-12-04T14:12:50;2.40;;;1.75;;
57155;SDS011;73771;59.928;10.682;2023-12-04T14:15:17;2.83;;;1.80;;
57155;SDS011;73771;59.928;10.682;2023-12-04T14:17:43;3.75;;;2.00;;
57155;SDS011;73771;59.928;10.682;2023-12-04T14:20:11;2.22;;;1.60;;
57155;SDS011;73771;59.928;10.682;2023-12-04T14:22:43;2.75;;;2.22;;
57155;SDS011;73771;59.928;10.682;2023-12-04T14:25:09;3.00;;;2.17;;
57155;SDS011;73771;59.928;10.682;2023-12-04T14:27:36;4.35;;;2.42;;
57155;SDS011;73771;59.928;10.682;2023-12-04T14:30:06;2.50;;;2.30;;
57155;SDS011;73771;59.928;10.682;2023-12-04T14:32:34;3.50;;;2.20;;
57155;SDS011;73771;59.928;10.682;2023-12-04T14:35:00;2.42;;;1.95;;
57155;SDS011;73771;59.928;10.682;2023-12-04T14:37:26;3.20;;;2.47;;
57155;SDS011;73771;59.928;10.682;2023-12-04T14:39:52;3.75;;;2.15;;
57155;SDS011;73771;59.928;10.682;2023-12-04T14:42:18;2.63;;;1.98;;
57155;SDS011;73771;59.928;10.682;2023-12-04T14:44:44;4.10;;;2.08;;
57155;SDS011;73771;59.928;10.682;2023-12-04T14:47:10;2.75;;;1.90;;
57155;SDS011;73771;59.928;10.682;2023-12-04T14:49:37;3.40;;;2.35;;
57155;SDS011;73771;59.928;10.682;2023-12-04T14:52:03;2.90;;;2.45;;
57155;SDS011;73771;59.928;10.682;2023-12-04T14:54:31;2.92;;;2.25;;
57155;SDS011;73771;59.928;10.682;2023-12-04T14:57:19;4.25;;;2.70;;
57155;SDS011;73771;59.928;10.682;2023-12-04T15:00:04;2.33;;;2.13;;
57155;SDS011;73771;59.928;10.682;2023-12-04T15:02:49;4.55;;;2.80;;
57155;SDS011;73771;59.928;10.682;2023-12-04T15:05:34;4.15;;;2.35;;
57155;SDS011;73771;59.928;10.682;2023-12-04T15:08:03;4.13;;;2.97;;
57155;SDS011;73771;59.928;10.682;2023-12-04T15:10:41;3.75;;;2.65;;
57155;SDS011;73771;59.928;10.682;2023-12-04T15:13:26;4.82;;;2.75;;
57155;SDS011;73771;59.928;10.682;2023-12-04T15:16:18;4.75;;;2.85;;
57155;SDS011;73771;59.928;10.682;2023-12-04T15:19:03;4.32;;;2.90;;
57155;SDS011;73771;59.928;10.682;2023-12-04T15:21:29;5.78;;;3.38;;
57155;SDS011;73771;59.928;10.682;2023-12-04T15:23:55;5.88;;;3.58;;
57155;SDS011;73771;59.928;10.682;2023-12-04T15:26:23;5.85;;;3.92;;
57155;SDS011;73771;59.928;10.682;2023-12-04T15:28:49;4.82;;;3.28;;
57155;SDS011;73771;59.928;10.682;2023-12-04T15:31:15;5.82;;;3.50;;
57155;SDS011;73771;59.928;10.682;2023-12-04T15:33:41;5.15;;;3.53;;
57155;SDS011;73771;59.928;10.682;2023-12-04T15:36:07;6.05;;;3.38;;
57155;SDS011;73771;59.928;10.682;2023-12-04T15:38:35;5.30;;;3.70;;
57155;SDS011;73771;59.928;10.682;2023-12-04T15:41:02;6.95;;;3.70;;
57155;SDS011;73771;59.928;10.682;2023-12-04T15:43:29;5.72;;;4.30;;
57155;SDS011;73771;59.928;10.682;2023-12-04T15:45:55;5.18;;;3.70;;
57155;SDS011;73771;59.928;10.682;2023-12-04T15:48:21;3.85;;;3.30;;
57155;SDS011;73771;59.928;10.682;2023-12-04T15:50:48;5.75;;;3.47;;
57155;SDS011;73771;59.928;10.682;2023-12-04T15:53:14;5.57;;;4.25;;
57155;SDS011;73771;59.928;10.682;2023-12-04T15:55:40;8.07;;;4.65;;
57155;SDS011;73771;59.928;10.682;2023-12-04T15:58:06;9.05;;;4.65;;
57155;SDS011;73771;59.928;10.682;2023-12-04T16:00:32;5.72;;;4.07;;
57155;SDS011;73771;59.928;10.682;2023-12-04T16:02:59;6.93;;;4.85;;
57155;SDS011;73771;59.928;10.682;2023-12-04T16:05:25;8.27;;;4.45;;
57155;SDS011;73771;59.928;10.682;2023-12-04T16:07:52;8.05;;;4.53;;
57155;SDS011;73771;59.928;10.682;2023-12-04T16:10:18;6.97;;;4.93;;
57155;SDS011;73771;59.928;10.682;2023-12-04T16:12:44;6.35;;;4.32;;
57155;SDS011;73771;59.928;10.682;2023-12-04T16:15:10;8.02;;;4.22;;
57155;SDS011;73771;59.928;10.682;2023-12-04T16:17:37;6.82;;;4.43;;
57155;SDS011;73771;59.928;10.682;2023-12-04T16:20:03;11.02;;;4.80;;
57155;SDS011;73771;59.928;10.682;2023-12-04T16:22:35;6.70;;;4.55;;
57155;SDS011;73771;59.928;10.682;2023-12-04T16:25:02;8.10;;;4.90;;
57155;SDS011;73771;59.928;10.682;2023-12-04T16:27:29;5.28;;;3.80;;
57155;SDS011;73771;59.928;10.682;2023-12-04T16:29:55;7.97;;;4.70;;
57155;SDS011;73771;59.928;10.682;2023-12-04T16:32:21;8.20;;;4.63;;
57155;SDS011;73771;59.928;10.682;2023-12-04T16:34:47;5.47;;;4.18;;
57155;SDS011;73771;59.928;10.682;2023-12-04T16:37:13;4.97;;;4.13;;
57155;SDS011;73771;59.928;10.682;2023-12-04T16:39:40;6.03;;;4.20;;
57155;SDS011;73771;59.928;10.682;2023-12-04T16:42:06;11.23;;;4.88;;
57155;SDS011;73771;59.928;10.682;2023-12-04T16:44:32;6.88;;;4.15;;
57155;SDS011;73771;59.928;10.682;2023-12-04T16:46:58;7.35;;;4.68;;
57155;SDS011;73771;59.928;10.682;2023-12-04T16:49:25;8.35;;;4.93;;
57155;SDS011;73771;59.928;10.682;2023-12-04T16:51:52;6.50;;;3.63;;
57155;SDS011;73771;59.928;10.682;2023-12-04T16:54:18;7.68;;;5.38;;
57155;SDS011;73771;59.928;10.682;2023-12-04T16:56:48;6.78;;;3.92;;
57155;SDS011;73771;59.928;10.682;2023-12-04T16:59:15;7.75;;;4.80;;
57155;SDS011;73771;59.928;10.682;2023-12-04T17:01:41;7.63;;;4.82;;
57155;SDS011;73771;59.928;10.682;2023-12-04T17:04:07;6.28;;;4.10;;
57155;SDS011;73771;59.928;10.682;2023-12-04T17:06:34;7.07;;;4.63;;
57155;SDS011;73771;59.928;10.682;2023-12-04T17:09:00;7.95;;;4.70;;
57155;SDS011;73771;59.928;10.682;2023-12-04T17:11:26;7.32;;;4.65;;
57155;SDS011;73771;59.928;10.682;2023-12-04T17:13:52;6.45;;;4.63;;
57155;SDS011;73771;59.928;10.682;2023-12-04T17:16:19;9.10;;;5.07;;
57155;SDS011;73771;59.928;10.682;2023-12-04T17:18:46;8.82;;;5.60;;
57155;SDS011;73771;59.928;10.682;2023-12-04T17:21:12;8.65;;;5.47;;
57155;SDS011;73771;59.928;10.682;2023-12-04T17:23:38;13.88;;;6.38;;
57155;SDS011;73771;59.928;10.682;2023-12-04T17:26:05;14.20;;;7.32;;
57155;SDS011;73771;59.928;10.682;2023-12-04T17:28:31;18.95;;;7.35;;
57155;SDS011;73771;59.928;10.682;2023-12-04T17:30:57;19.00;;;7.57;;
57155;SDS011;73771;59.928;10.682;2023-12-04T17:33:23;18.45;;;7.30;;
57155;SDS011;73771;59.928;10.682;2023-12-04T17:35:49;15.60;;;8.05;;
57155;SDS011;73771;59.928;10.682;2023-12-04T17:38:15;22.10;;;8.90;;
57155;SDS011;73771;59.928;10.682;2023-12-04T17:40:42;13.35;;;6.75;;
57155;SDS011;73771;59.928;10.682;2023-12-04T17:43:08;17.67;;;8.68;;
57155;SDS011;73771;59.928;10.682;2023-12-04T17:45:34;14.68;;;8.65;;
57155;SDS011;73771;59.928;10.682;2023-12-04T17:48:00;15.30;;;8.75;;
57155;SDS011;73771;59.928;10.682;2023-12-04T17:50:28;12.93;;;8.02;;
57155;SDS011;73771;59.928;10.682;2023-12-04T17:52:54;13.57;;;7.82;;
57155;SDS011;73771;59.928;10.682;2023-12-04T17:55:20;13.05;;;8.20;;
57155;SDS011;73771;59.928;10.682;2023-12-04T17:57:50;13.32;;;8.30;;
57155;SDS011;73771;59.928;10.682;2023-12-04T18:00:17;14.07;;;8.10;;
57155;SDS011;73771;59.928;10.682;2023-12-04T18:02:43;12.88;;;7.85;;
57155;SDS011;73771;59.928;10.682;2023-12-04T18:05:14;10.82;;;7.55;;
57155;SDS011;73771;59.928;10.682;2023-12-04T18:07:40;12.15;;;8.52;;
57155;SDS011;73771;59.928;10.682;2023-12-04T18:10:08;11.77;;;8.38;;
57155;SDS011;73771;59.928;10.682;2023-12-04T18:12:34;11.70;;;7.70;;